sensor_id;sensor_type;location;lat;lon;timestamp;P1;durP1;ratioP1;P2;durP2;ratioP2
34317;SDS011;20582;52.196;20.952;2023-04-06T00:01:51;8.90;;;4.20;;
34317;SDS011;20582;52.196;20.952;2023-04-06T00:04:17;9.30;;;4.40;;
34317;SDS011;20582;52.196;20.952;2023-04-06T00:06:43;8.88;;;4.53;;
34317;SDS011;20582;52.196;20.952;2023-04-06T00:09:09;10.07;;;4.55;;
34317;SDS011;20582;52.196;20.952;2023-04-06T00:11:35;8.57;;;4.10;;
34317;SDS011;20582;52.196;20.952;2023-04-06T00:14:01;12.63;;;4.68;;
34317;SDS011;20582;52.196;20.952;2023-04-06T00:16:27;7.88;;;3.85;;
34317;SDS011;20582;52.196;20.952;2023-04-06T00:18:53;11.02;;;4.43;;
34317;SDS011;20582;52.196;20.952;2023-04-06T00:21:19;8.73;;;4.75;;
34317;SDS011;20582;52.196;20.952;2023-04-06T00:23:45;8.57;;;4.30;;
34317;SDS011;20582;52.196;20.952;2023-04-06T00:26:11;11.85;;;4.65;;
34317;SDS011;20582;52.196;20.952;2023-04-06T00:28:37;9.90;;;4.47;;
34317;SDS011;20582;52.196;20.952;2023-04-06T00:31:03;10.35;;;4.15;;
34317;SDS011;20582;52.196;20.952;2023-04-06T00:33:29;12.55;;;4.18;;
34317;SDS011;20582;52.196;20.952;2023-04-06T00:35:55;9.18;;;4.60;;
34317;SDS011;20582;52.196;20.952;2023-04-06T00:38:21;9.98;;;4.75;;
34317;SDS011;20582;52.196;20.952;2023-04-06T00:40:47;16.48;;;4.78;;
34317;SDS011;20582;52.196;20.952;2023-04-06T00:43:14;10.00;;;4.35;;
34317;SDS011;20582;52.196;20.952;2023-04-06T00:45:40;9.85;;;4.20;;
34317;SDS011;20582;52.196;20.952;2023-04-06T00:48:06;9.15;;;4.50;;
34317;SDS011;20582;52.196;20.952;2023-04-06T00:50:33;9.13;;;4.30;;
34317;SDS011;20582;52.196;20.952;2023-04-06T00:52:59;9.52;;;4.35;;
34317;SDS011;20582;52.196;20.952;2023-04-06T00:55:28;8.77;;;4.30;;
34317;SDS011;20582;52.196;20.952;2023-04-06T00:57:55;12.63;;;4.60;;
34317;SDS011;20582;52.196;20.952;2023-04-06T01:00:22;9.32;;;4.47;;
34317;SDS011;20582;52.196;20.952;2023-04-06T01:02:48;8.63;;;4.40;;
34317;SDS011;20582;52.196;20.952;2023-04-06T01:05:14;13.02;;;4.93;;
34317;SDS011;20582;52.196;20.952;2023-04-06T01:07:40;10.48;;;4.68;;
34317;SDS011;20582;52.196;20.952;2023-04-06T01:10:06;9.88;;;4.38;;
34317;SDS011;20582;52.196;20.952;2023-04-06T01:12:32;9.48;;;4.63;;
34317;SDS011;20582;52.196;20.952;2023-04-06T01:14:59;10.20;;;5.05;;
34317;SDS011;20582;52.196;20.952;2023-04-06T01:17:25;10.73;;;4.32;;
34317;SDS011;20582;52.196;20.952;2023-04-06T01:19:51;8.82;;;4.43;;
34317;SDS011;20582;52.196;20.952;2023-04-06T01:22:18;9.95;;;4.82;;
34317;SDS011;20582;52.196;20.952;2023-04-06T01:24:45;8.60;;;4.43;;
34317;SDS011;20582;52.196;20.952;2023-04-06T01:27:11;9.40;;;4.30;;
34317;SDS011;20582;52.196;20.952;2023-04-06T01:29:37;9.90;;;3.83;;
34317;SDS011;20582;52.196;20.952;2023-04-06T01:32:06;10.10;;;3.85;;
34317;SDS011;20582;52.196;20.952;2023-04-06T01:34:32;9.30;;;4.55;;
34317;SDS011;20582;52.196;20.952;2023-04-06T01:36:58;9.70;;;4.13;;
34317;SDS011;20582;52.196;20.952;2023-04-06T01:39:24;11.20;;;4.55;;
34317;SDS011;20582;52.196;20.952;2023-04-06T01:41:51;12.32;;;4.25;;
34317;SDS011;20582;52.196;20.952;2023-04-06T01:44:17;11.35;;;4.03;;
34317;SDS011;20582;52.196;20.952;2023-04-06T01:46:43;8.63;;;4.18;;
34317;SDS011;20582;52.196;20.952;2023-04-06T01:49:10;9.05;;;4.68;;
34317;SDS011;20582;52.196;20.952;2023-04-06T01:51:36;10.52;;;4.25;;
34317;SDS011;20582;52.196;20.952;2023-04-06T01:54:02;10.52;;;4.25;;
34317;SDS011;20582;52.196;20.952;2023-04-06T01:56:28;9.43;;;4.75;;
34317;SDS011;20582;52.196;20.952;2023-04-06T01:58:54;9.73;;;4.00;;
34317;SDS011;20582;52.196;20.952;2023-04-06T02:01:21;10.13;;;4.13;;
34317;SDS011;20582;52.196;20.952;2023-04-06T02:03:47;10.25;;;4.35;;
34317;SDS011;20582;52.196;20.952;2023-04-06T02:06:13;11.88;;;4.43;;
34317;SDS011;20582;52.196;20.952;2023-04-06T02:08:39;10.55;;;4.40;;
34317;SDS011;20582;52.196;20.952;2023-04-06T02:11:05;11.88;;;4.45;;
34317;SDS011;20582;52.196;20.952;2023-04-06T02:13:31;11.57;;;4.55;;
34317;SDS011;20582;52.196;20.952;2023-04-06T02:15:57;10.48;;;4.68;;
34317;SDS011;20582;52.196;20.952;2023-04-06T02:18:23;12.40;;;4.90;;
34317;SDS011;20582;52.196;20.952;2023-04-06T02:20:49;10.57;;;4.25;;
34317;SDS011;20582;52.196;20.952;2023-04-06T02:23:16;10.55;;;4.30;;
34317;SDS011;20582;52.196;20.952;2023-04-06T02:25:41;10.60;;;4.57;;
34317;SDS011;20582;52.196;20.952;2023-04-06T02:28:07;11.25;;;5.13;;
34317;SDS011;20582;52.196;20.952;2023-04-06T02:30:33;12.15;;;5.60;;
34317;SDS011;20582;52.196;20.952;2023-04-06T02:33:00;12.40;;;5.00;;
34317;SDS011;20582;52.196;20.952;2023-04-06T02:35:27;11.10;;;4.82;;
34317;SDS011;20582;52.196;20.952;2023-04-06T02:37:53;10.75;;;5.38;;
34317;SDS011;20582;52.196;20.952;2023-04-06T02:40:19;11.95;;;5.32;;
34317;SDS011;20582;52.196;20.952;2023-04-06T02:42:45;13.80;;;5.88;;
34317;SDS011;20582;52.196;20.952;2023-04-06T02:45:11;11.48;;;4.95;;
34317;SDS011;20582;52.196;20.952;2023-04-06T02:47:37;13.75;;;5.50;;
34317;SDS011;20582;52.196;20.952;2023-04-06T02:50:04;10.85;;;5.47;;
34317;SDS011;20582;52.196;20.952;2023-04-06T02:52:30;13.32;;;5.78;;
34317;SDS011;20582;52.196;20.952;2023-04-06T02:54:56;12.40;;;5.75;;
34317;SDS011;20582;52.196;20.952;2023-04-06T02:57:22;15.07;;;5.70;;
34317;SDS011;20582;52.196;20.952;2023-04-06T02:59:48;11.63;;;5.38;;
34317;SDS011;20582;52.196;20.952;2023-04-06T03:02:14;12.00;;;5.68;;
34317;SDS011;20582;52.196;20.952;2023-04-06T03:04:40;16.23;;;6.18;;
34317;SDS011;20582;52.196;20.952;2023-04-06T03:07:06;15.93;;;6.28;;
34317;SDS011;20582;52.196;20.952;2023-04-06T03:09:32;13.40;;;6.00;;
34317;SDS011;20582;52.196;20.952;2023-04-06T03:11:58;16.73;;;6.22;;
34317;SDS011;20582;52.196;20.952;2023-04-06T03:14:24;12.90;;;6.03;;
34317;SDS011;20582;52.196;20.952;2023-04-06T03:16:50;14.43;;;6.70;;
34317;SDS011;20582;52.196;20.952;2023-04-06T03:19:16;14.65;;;6.03;;
34317;SDS011;20582;52.196;20.952;2023-04-06T03:21:42;16.23;;;6.75;;
34317;SDS011;20582;52.196;20.952;2023-04-06T03:24:08;17.23;;;6.68;;
34317;SDS011;20582;52.196;20.952;2023-04-06T03:26:34;17.10;;;7.88;;
34317;SDS011;20582;52.196;20.952;2023-04-06T03:29:00;17.42;;;7.45;;
34317;SDS011;20582;52.196;20.952;2023-04-06T03:31:26;19.02;;;7.40;;
34317;SDS011;20582;52.196;20.952;2023-04-06T03:33:52;13.43;;;7.07;;
34317;SDS011;20582;52.196;20.952;2023-04-06T03:36:18;15.15;;;6.75;;
34317;SDS011;20582;52.196;20.952;2023-04-06T03:38:44;16.83;;;7.45;;
34317;SDS011;20582;52.196;20.952;2023-04-06T03:41:10;15.27;;;7.70;;
34317;SDS011;20582;52.196;20.952;2023-04-06T03:43:36;17.75;;;7.35;;
34317;SDS011;20582;52.196;20.952;2023-04-06T03:46:02;21.17;;;7.95;;
34317;SDS011;20582;52.196;20.952;2023-04-06T03:48:28;22.92;;;8.10;;
34317;SDS011;20582;52.196;20.952;2023-04-06T03:50:54;19.05;;;8.55;;
34317;SDS011;20582;52.196;20.952;2023-04-06T03:53:20;19.85;;;8.20;;
34317;SDS011;20582;52.196;20.952;2023-04-06T03:55:46;15.90;;;7.45;;
34317;SDS011;20582;52.196;20.952;2023-04-06T03:58:12;19.95;;;7.57;;
34317;SDS011;20582;52.196;20.952;2023-04-06T04:00:38;20.23;;;7.97;;
34317;SDS011;20582;52.196;20.952;2023-04-06T04:03:04;20.05;;;7.90;;
34317;SDS011;20582;52.196;20.952;2023-04-06T04:05:30;18.50;;;7.38;;
34317;SDS011;20582;52.196;20.952;2023-04-06T04:07:56;20.05;;;8.40;;
34317;SDS011;20582;52.196;20.952;2023-04-06T04:10:22;21.50;;;8.57;;
34317;SDS011;20582;52.196;20.952;2023-04-06T04:12:48;17.17;;;8.02;;
34317;SDS011;20582;52.196;20.952;2023-04-06T04:15:14;21.63;;;8.68;;
34317;SDS011;20582;52.196;20.952;2023-04-06T04:17:40;22.83;;;7.95;;
34317;SDS011;20582;52.196;20.952;2023-04-06T04:20:06;22.52;;;8.05;;
34317;SDS011;20582;52.196;20.952;2023-04-06T04:22:32;20.85;;;7.90;;
34317;SDS011;20582;52.196;20.952;2023-04-06T04:24:58;18.48;;;8.50;;
34317;SDS011;20582;52.196;20.952;2023-04-06T04:27:24;19.92;;;8.93;;
34317;SDS011;20582;52.196;20.952;2023-04-06T04:29:50;23.77;;;8.90;;
34317;SDS011;20582;52.196;20.952;2023-04-06T04:32:16;21.15;;;8.68;;
34317;SDS011;20582;52.196;20.952;2023-04-06T04:34:42;20.58;;;8.20;;
34317;SDS011;20582;52.196;20.952;2023-04-06T04:37:08;18.02;;;8.30;;
34317;SDS011;20582;52.196;20.952;2023-04-06T04:39:34;19.33;;;8.68;;
34317;SDS011;20582;52.196;20.952;2023-04-06T04:42:00;24.23;;;9.15;;
34317;SDS011;20582;52.196;20.952;2023-04-06T04:44:26;24.65;;;8.80;;
34317;SDS011;20582;52.196;20.952;2023-04-06T04:46:52;21.50;;;8.40;;
34317;SDS011;20582;52.196;20.952;2023-04-06T04:49:18;18.38;;;8.40;;
34317;SDS011;20582;52.196;20.952;2023-04-06T04:51:44;21.17;;;8.80;;
34317;SDS011;20582;52.196;20.952;2023-04-06T04:54:10;18.67;;;8.95;;
34317;SDS011;20582;52.196;20.952;2023-04-06T04:56:36;21.83;;;8.20;;
34317;SDS011;20582;52.196;20.952;2023-04-06T04:59:02;25.50;;;8.70;;
34317;SDS011;20582;52.196;20.952;2023-04-06T05:01:28;16.48;;;8.25;;
34317;SDS011;20582;52.196;20.952;2023-04-06T05:03:54;15.43;;;7.22;;
34317;SDS011;20582;52.196;20.952;2023-04-06T05:06:20;16.13;;;7.47;;
34317;SDS011;20582;52.196;20.952;2023-04-06T05:08:46;16.05;;;7.72;;
34317;SDS011;20582;52.196;20.952;2023-04-06T05:11:12;17.60;;;8.07;;
34317;SDS011;20582;52.196;20.952;2023-04-06T05:13:38;15.88;;;6.70;;
34317;SDS011;20582;52.196;20.952;2023-04-06T05:16:04;16.13;;;7.53;;
34317;SDS011;20582;52.196;20.952;2023-04-06T05:18:30;19.52;;;7.55;;
34317;SDS011;20582;52.196;20.952;2023-04-06T05:20:56;18.00;;;7.70;;
34317;SDS011;20582;52.196;20.952;2023-04-06T05:23:22;17.42;;;7.47;;
34317;SDS011;20582;52.196;20.952;2023-04-06T05:25:48;17.23;;;7.80;;
34317;SDS011;20582;52.196;20.952;2023-04-06T05:28:14;19.27;;;6.82;;
34317;SDS011;20582;52.196;20.952;2023-04-06T05:30:41;15.20;;;6.90;;
34317;SDS011;20582;52.196;20.952;2023-04-06T05:33:07;15.65;;;6.80;;
34317;SDS011;20582;52.196;20.952;2023-04-06T05:35:33;14.55;;;6.70;;
34317;SDS011;20582;52.196;20.952;2023-04-06T05:37:59;15.55;;;7.55;;
34317;SDS011;20582;52.196;20.952;2023-04-06T05:40:25;16.98;;;7.60;;
34317;SDS011;20582;52.196;20.952;2023-04-06T05:42:51;16.98;;;7.97;;
34317;SDS011;20582;52.196;20.952;2023-04-06T05:45:18;17.15;;;6.75;;
34317;SDS011;20582;52.196;20.952;2023-04-06T05:47:45;16.73;;;6.85;;
34317;SDS011;20582;52.196;20.952;2023-04-06T05:50:11;22.75;;;7.88;;
34317;SDS011;20582;52.196;20.952;2023-04-06T05:52:37;14.35;;;7.28;;
34317;SDS011;20582;52.196;20.952;2023-04-06T05:55:04;22.27;;;7.28;;
34317;SDS011;20582;52.196;20.952;2023-04-06T05:57:30;15.07;;;6.90;;
34317;SDS011;20582;52.196;20.952;2023-04-06T05:59:56;17.23;;;7.88;;
34317;SDS011;20582;52.196;20.952;2023-04-06T06:02:22;15.48;;;6.85;;
34317;SDS011;20582;52.196;20.952;2023-04-06T06:04:48;18.63;;;6.70;;
34317;SDS011;20582;52.196;20.952;2023-04-06T06:07:14;15.00;;;6.13;;
34317;SDS011;20582;52.196;20.952;2023-04-06T06:09:40;16.38;;;6.35;;
34317;SDS011;20582;52.196;20.952;2023-04-06T06:12:06;13.02;;;6.10;;
34317;SDS011;20582;52.196;20.952;2023-04-06T06:14:32;17.58;;;6.40;;
34317;SDS011;20582;52.196;20.952;2023-04-06T06:16:58;14.90;;;5.93;;
34317;SDS011;20582;52.196;20.952;2023-04-06T06:19:24;14.75;;;6.15;;
34317;SDS011;20582;52.196;20.952;2023-04-06T06:21:50;14.25;;;5.82;;
34317;SDS011;20582;52.196;20.952;2023-04-06T06:24:16;15.13;;;6.43;;
34317;SDS011;20582;52.196;20.952;2023-04-06T06:26:42;14.13;;;6.18;;
34317;SDS011;20582;52.196;20.952;2023-04-06T06:29:08;14.85;;;6.90;;
34317;SDS011;20582;52.196;20.952;2023-04-06T06:31:34;14.60;;;6.13;;
34317;SDS011;20582;52.196;20.952;2023-04-06T06:34:00;13.60;;;6.82;;
34317;SDS011;20582;52.196;20.952;2023-04-06T06:36:27;14.90;;;6.00;;
34317;SDS011;20582;52.196;20.952;2023-04-06T06:38:53;12.75;;;5.70;;
34317;SDS011;20582;52.196;20.952;2023-04-06T06:41:18;13.25;;;5.43;;
34317;SDS011;20582;52.196;20.952;2023-04-06T06:43:44;14.88;;;6.53;;
34317;SDS011;20582;52.196;20.952;2023-04-06T06:46:10;11.23;;;5.53;;
34317;SDS011;20582;52.196;20.952;2023-04-06T06:48:36;13.25;;;5.00;;
34317;SDS011;20582;52.196;20.952;2023-04-06T06:51:02;12.52;;;5.15;;
34317;SDS011;20582;52.196;20.952;2023-04-06T06:53:28;10.50;;;5.03;;
34317;SDS011;20582;52.196;20.952;2023-04-06T06:55:54;13.18;;;5.07;;
34317;SDS011;20582;52.196;20.952;2023-04-06T06:58:21;12.65;;;4.75;;
34317;SDS011;20582;52.196;20.952;2023-04-06T07:00:47;11.35;;;4.78;;
34317;SDS011;20582;52.196;20.952;2023-04-06T07:03:13;11.50;;;4.65;;
34317;SDS011;20582;52.196;20.952;2023-04-06T07:05:44;10.55;;;4.45;;
34317;SDS011;20582;52.196;20.952;2023-04-06T07:08:13;11.35;;;4.30;;
34317;SDS011;20582;52.196;20.952;2023-04-06T07:10:40;11.70;;;5.03;;
34317;SDS011;20582;52.196;20.952;2023-04-06T07:13:06;10.63;;;4.90;;
34317;SDS011;20582;52.196;20.952;2023-04-06T07:15:32;11.88;;;5.35;;
34317;SDS011;20582;52.196;20.952;2023-04-06T07:17:58;13.20;;;4.38;;
34317;SDS011;20582;52.196;20.952;2023-04-06T07:20:24;11.73;;;4.60;;
34317;SDS011;20582;52.196;20.952;2023-04-06T07:22:50;9.93;;;4.07;;
34317;SDS011;20582;52.196;20.952;2023-04-06T07:25:16;12.02;;;4.20;;
34317;SDS011;20582;52.196;20.952;2023-04-06T07:27:42;11.55;;;4.47;;
34317;SDS011;20582;52.196;20.952;2023-04-06T07:30:08;10.30;;;4.25;;
34317;SDS011;20582;52.196;20.952;2023-04-06T07:32:34;11.73;;;4.93;;
34317;SDS011;20582;52.196;20.952;2023-04-06T07:35:00;9.15;;;3.90;;
34317;SDS011;20582;52.196;20.952;2023-04-06T07:37:26;10.15;;;4.53;;
34317;SDS011;20582;52.196;20.952;2023-04-06T07:39:52;12.32;;;4.10;;
34317;SDS011;20582;52.196;20.952;2023-04-06T07:42:18;9.93;;;3.78;;
34317;SDS011;20582;52.196;20.952;2023-04-06T07:44:44;9.38;;;4.00;;
34317;SDS011;20582;52.196;20.952;2023-04-06T07:47:10;9.98;;;4.13;;
34317;SDS011;20582;52.196;20.952;2023-04-06T07:49:36;8.90;;;3.80;;
34317;SDS011;20582;52.196;20.952;2023-04-06T07:52:02;8.32;;;3.90;;
34317;SDS011;20582;52.196;20.952;2023-04-06T07:54:28;7.28;;;3.72;;
34317;SDS011;20582;52.196;20.952;2023-04-06T07:56:54;9.32;;;3.70;;
34317;SDS011;20582;52.196;20.952;2023-04-06T07:59:20;8.38;;;4.13;;
34317;SDS011;20582;52.196;20.952;2023-04-06T08:01:46;11.52;;;3.80;;
34317;SDS011;20582;52.196;20.952;2023-04-06T08:04:12;8.30;;;3.75;;
34317;SDS011;20582;52.196;20.952;2023-04-06T08:06:38;12.32;;;4.20;;
34317;SDS011;20582;52.196;20.952;2023-04-06T08:09:06;7.72;;;3.92;;
34317;SDS011;20582;52.196;20.952;2023-04-06T08:11:32;9.57;;;3.97;;
34317;SDS011;20582;52.196;20.952;2023-04-06T08:13:58;11.13;;;3.90;;
34317;SDS011;20582;52.196;20.952;2023-04-06T08:16:24;13.93;;;4.47;;
34317;SDS011;20582;52.196;20.952;2023-04-06T08:18:50;8.45;;;4.18;;
34317;SDS011;20582;52.196;20.952;2023-04-06T08:21:16;13.25;;;4.30;;
34317;SDS011;20582;52.196;20.952;2023-04-06T08:23:42;8.68;;;3.90;;
34317;SDS011;20582;52.196;20.952;2023-04-06T08:26:08;9.38;;;3.85;;
34317;SDS011;20582;52.196;20.952;2023-04-06T08:28:34;8.18;;;3.65;;
34317;SDS011;20582;52.196;20.952;2023-04-06T08:31:03;10.40;;;3.55;;
34317;SDS011;20582;52.196;20.952;2023-04-06T08:33:30;10.90;;;4.00;;
34317;SDS011;20582;52.196;20.952;2023-04-06T08:35:56;11.93;;;4.20;;
34317;SDS011;20582;52.196;20.952;2023-04-06T08:38:22;9.52;;;3.80;;
34317;SDS011;20582;52.196;20.952;2023-04-06T08:40:48;8.25;;;4.00;;
34317;SDS011;20582;52.196;20.952;2023-04-06T08:43:16;11.23;;;4.05;;
34317;SDS011;20582;52.196;20.952;2023-04-06T08:45:42;12.10;;;4.35;;
34317;SDS011;20582;52.196;20.952;2023-04-06T08:48:08;10.95;;;4.10;;
34317;SDS011;20582;52.196;20.952;2023-04-06T08:50:35;10.63;;;4.20;;
34317;SDS011;20582;52.196;20.952;2023-04-06T08:53:01;11.13;;;4.18;;
34317;SDS011;20582;52.196;20.952;2023-04-06T08:55:27;10.27;;;4.53;;
34317;SDS011;20582;52.196;20.952;2023-04-06T08:57:53;11.10;;;4.13;;
34317;SDS011;20582;52.196;20.952;2023-04-06T09:00:20;8.10;;;4.00;;
34317;SDS011;20582;52.196;20.952;2023-04-06T09:02:47;8.68;;;4.10;;
34317;SDS011;20582;52.196;20.952;2023-04-06T09:05:15;14.20;;;4.50;;
34317;SDS011;20582;52.196;20.952;2023-04-06T09:07:41;9.80;;;4.40;;
34317;SDS011;20582;52.196;20.952;2023-04-06T09:10:07;10.88;;;4.32;;
34317;SDS011;20582;52.196;20.952;2023-04-06T09:12:33;9.00;;;4.25;;
34317;SDS011;20582;52.196;20.952;2023-04-06T09:15:00;9.45;;;4.30;;
34317;SDS011;20582;52.196;20.952;2023-04-06T09:17:27;9.90;;;4.28;;
34317;SDS011;20582;52.196;20.952;2023-04-06T09:19:54;10.18;;;4.45;;
34317;SDS011;20582;52.196;20.952;2023-04-06T09:22:20;11.10;;;4.47;;
34317;SDS011;20582;52.196;20.952;2023-04-06T09:24:51;9.13;;;4.40;;
34317;SDS011;20582;52.196;20.952;2023-04-06T09:27:17;11.80;;;4.43;;
34317;SDS011;20582;52.196;20.952;2023-04-06T09:29:43;11.23;;;4.50;;
34317;SDS011;20582;52.196;20.952;2023-04-06T09:32:10;12.57;;;4.13;;
34317;SDS011;20582;52.196;20.952;2023-04-06T09:34:37;8.35;;;4.40;;
34317;SDS011;20582;52.196;20.952;2023-04-06T09:37:15;8.98;;;4.57;;
34317;SDS011;20582;52.196;20.952;2023-04-06T09:39:42;10.05;;;4.32;;
34317;SDS011;20582;52.196;20.952;2023-04-06T09:42:09;10.38;;;4.30;;
34317;SDS011;20582;52.196;20.952;2023-04-06T09:44:35;14.98;;;5.22;;
34317;SDS011;20582;52.196;20.952;2023-04-06T09:47:01;13.60;;;5.45;;
34317;SDS011;20582;52.196;20.952;2023-04-06T09:49:30;12.60;;;4.78;;
34317;SDS011;20582;52.196;20.952;2023-04-06T09:51:59;10.77;;;4.50;;
34317;SDS011;20582;52.196;20.952;2023-04-06T09:54:27;11.27;;;5.30;;
34317;SDS011;20582;52.196;20.952;2023-04-06T09:57:02;11.48;;;4.65;;
34317;SDS011;20582;52.196;20.952;2023-04-06T10:04:38;10.13;;;5.00;;
34317;SDS011;20582;52.196;20.952;2023-04-06T10:07:06;10.27;;;4.85;;
34317;SDS011;20582;52.196;20.952;2023-04-06T10:09:33;11.48;;;5.15;;
34317;SDS011;20582;52.196;20.952;2023-04-06T10:12:04;11.52;;;4.80;;
34317;SDS011;20582;52.196;20.952;2023-04-06T10:14:34;9.55;;;4.78;;
34317;SDS011;20582;52.196;20.952;2023-04-06T10:17:03;9.52;;;4.63;;
34317;SDS011;20582;52.196;20.952;2023-04-06T10:19:52;10.27;;;4.75;;
34317;SDS011;20582;52.196;20.952;2023-04-06T10:22:18;11.95;;;4.60;;
34317;SDS011;20582;52.196;20.952;2023-04-06T10:24:48;9.30;;;4.70;;
34317;SDS011;20582;52.196;20.952;2023-04-06T10:27:14;12.75;;;5.80;;
34317;SDS011;20582;52.196;20.952;2023-04-06T10:29:46;14.07;;;4.93;;
34317;SDS011;20582;52.196;20.952;2023-04-06T10:32:16;11.70;;;5.28;;
34317;SDS011;20582;52.196;20.952;2023-04-06T10:34:42;11.68;;;5.47;;
34317;SDS011;20582;52.196;20.952;2023-04-06T10:37:15;12.05;;;5.15;;
34317;SDS011;20582;52.196;20.952;2023-04-06T10:39:47;11.93;;;5.18;;
34317;SDS011;20582;52.196;20.952;2023-04-06T10:42:13;10.20;;;5.18;;
34317;SDS011;20582;52.196;20.952;2023-04-06T10:44:43;9.25;;;5.07;;
34317;SDS011;20582;52.196;20.952;2023-04-06T10:47:15;11.70;;;5.30;;
34317;SDS011;20582;52.196;20.952;2023-04-06T10:49:43;11.30;;;5.40;;
34317;SDS011;20582;52.196;20.952;2023-04-06T10:52:09;13.18;;;5.43;;
34317;SDS011;20582;52.196;20.952;2023-04-06T10:54:40;9.18;;;5.15;;
34317;SDS011;20582;52.196;20.952;2023-04-06T10:57:07;15.30;;;6.05;;
34317;SDS011;20582;52.196;20.952;2023-04-06T10:59:33;13.95;;;5.63;;
34317;SDS011;20582;52.196;20.952;2023-04-06T11:01:59;12.55;;;5.45;;
34317;SDS011;20582;52.196;20.952;2023-04-06T11:04:25;11.88;;;6.03;;
34317;SDS011;20582;52.196;20.952;2023-04-06T11:06:51;12.70;;;5.68;;
34317;SDS011;20582;52.196;20.952;2023-04-06T11:09:27;11.10;;;5.15;;
34317;SDS011;20582;52.196;20.952;2023-04-06T11:11:53;11.45;;;5.60;;
34317;SDS011;20582;52.196;20.952;2023-04-06T11:14:20;11.30;;;5.78;;
34317;SDS011;20582;52.196;20.952;2023-04-06T11:16:46;12.95;;;6.18;;
34317;SDS011;20582;52.196;20.952;2023-04-06T11:19:15;10.38;;;5.90;;
34317;SDS011;20582;52.196;20.952;2023-04-06T11:21:43;10.85;;;5.65;;
34317;SDS011;20582;52.196;20.952;2023-04-06T11:26:57;11.95;;;5.55;;
34317;SDS011;20582;52.196;20.952;2023-04-06T11:29:27;11.80;;;5.63;;
34317;SDS011;20582;52.196;20.952;2023-04-06T11:31:57;13.10;;;5.93;;
34317;SDS011;20582;52.196;20.952;2023-04-06T11:34:24;13.48;;;6.10;;
34317;SDS011;20582;52.196;20.952;2023-04-06T11:36:59;11.23;;;6.18;;
34317;SDS011;20582;52.196;20.952;2023-04-06T11:39:27;13.05;;;6.97;;
34317;SDS011;20582;52.196;20.952;2023-04-06T11:41:56;15.32;;;6.90;;
34317;SDS011;20582;52.196;20.952;2023-04-06T11:44:39;13.98;;;6.90;;
34317;SDS011;20582;52.196;20.952;2023-04-06T11:47:06;12.30;;;7.05;;
34317;SDS011;20582;52.196;20.952;2023-04-06T11:49:33;13.45;;;6.93;;
34317;SDS011;20582;52.196;20.952;2023-04-06T11:51:59;13.50;;;7.00;;
34317;SDS011;20582;52.196;20.952;2023-04-06T11:54:35;13.05;;;7.55;;
34317;SDS011;20582;52.196;20.952;2023-04-06T11:57:02;12.10;;;6.60;;
34317;SDS011;20582;52.196;20.952;2023-04-06T11:59:29;14.38;;;7.38;;
34317;SDS011;20582;52.196;20.952;2023-04-06T12:01:57;14.07;;;7.95;;
34317;SDS011;20582;52.196;20.952;2023-04-06T12:04:23;12.88;;;6.88;;
34317;SDS011;20582;52.196;20.952;2023-04-06T12:06:49;13.07;;;7.50;;
34317;SDS011;20582;52.196;20.952;2023-04-06T12:09:16;11.75;;;6.80;;
34317;SDS011;20582;52.196;20.952;2023-04-06T12:11:45;10.95;;;6.47;;
34317;SDS011;20582;52.196;20.952;2023-04-06T12:14:11;15.30;;;7.72;;
34317;SDS011;20582;52.196;20.952;2023-04-06T12:16:37;15.65;;;7.35;;
34317;SDS011;20582;52.196;20.952;2023-04-06T12:19:03;14.25;;;7.03;;
34317;SDS011;20582;52.196;20.952;2023-04-06T12:21:30;16.23;;;8.20;;
34317;SDS011;20582;52.196;20.952;2023-04-06T12:23:59;13.15;;;6.57;;
34317;SDS011;20582;52.196;20.952;2023-04-06T12:26:26;10.90;;;6.28;;
34317;SDS011;20582;52.196;20.952;2023-04-06T12:28:52;12.88;;;6.40;;
34317;SDS011;20582;52.196;20.952;2023-04-06T12:31:19;12.60;;;6.70;;
34317;SDS011;20582;52.196;20.952;2023-04-06T12:33:48;14.38;;;7.13;;
34317;SDS011;20582;52.196;20.952;2023-04-06T12:36:15;12.07;;;6.60;;
34317;SDS011;20582;52.196;20.952;2023-04-06T12:38:43;15.75;;;6.63;;
34317;SDS011;20582;52.196;20.952;2023-04-06T12:41:10;13.88;;;6.78;;
34317;SDS011;20582;52.196;20.952;2023-04-06T12:43:36;12.02;;;6.43;;
34317;SDS011;20582;52.196;20.952;2023-04-06T12:46:02;11.68;;;6.63;;
34317;SDS011;20582;52.196;20.952;2023-04-06T12:48:28;12.55;;;6.35;;
34317;SDS011;20582;52.196;20.952;2023-04-06T12:50:56;11.25;;;5.97;;
34317;SDS011;20582;52.196;20.952;2023-04-06T12:53:22;12.82;;;6.43;;
34317;SDS011;20582;52.196;20.952;2023-04-06T12:55:47;13.95;;;6.88;;
34317;SDS011;20582;52.196;20.952;2023-04-06T12:58:14;10.90;;;6.13;;
34317;SDS011;20582;52.196;20.952;2023-04-06T13:00:41;10.60;;;6.30;;
34317;SDS011;20582;52.196;20.952;2023-04-06T13:03:07;11.52;;;6.50;;
34317;SDS011;20582;52.196;20.952;2023-04-06T13:05:34;11.85;;;6.32;;
34317;SDS011;20582;52.196;20.952;2023-04-06T13:07:59;18.35;;;6.22;;
34317;SDS011;20582;52.196;20.952;2023-04-06T13:10:25;11.50;;;6.32;;
34317;SDS011;20582;52.196;20.952;2023-04-06T13:12:51;9.88;;;5.60;;
34317;SDS011;20582;52.196;20.952;2023-04-06T13:15:17;10.05;;;5.70;;
34317;SDS011;20582;52.196;20.952;2023-04-06T13:17:44;10.93;;;5.22;;
34317;SDS011;20582;52.196;20.952;2023-04-06T13:20:10;12.98;;;5.95;;
34317;SDS011;20582;52.196;20.952;2023-04-06T13:22:36;12.38;;;6.00;;
34317;SDS011;20582;52.196;20.952;2023-04-06T13:25:02;11.82;;;5.63;;
34317;SDS011;20582;52.196;20.952;2023-04-06T13:27:28;15.52;;;7.07;;
34317;SDS011;20582;52.196;20.952;2023-04-06T13:29:55;11.43;;;5.93;;
34317;SDS011;20582;52.196;20.952;2023-04-06T13:32:21;15.45;;;6.60;;
34317;SDS011;20582;52.196;20.952;2023-04-06T13:34:47;12.32;;;5.97;;
34317;SDS011;20582;52.196;20.952;2023-04-06T13:37:14;11.45;;;5.85;;
34317;SDS011;20582;52.196;20.952;2023-04-06T13:39:40;12.75;;;7.13;;
34317;SDS011;20582;52.196;20.952;2023-04-06T13:42:06;10.43;;;6.07;;
34317;SDS011;20582;52.196;20.952;2023-04-06T13:44:32;11.77;;;6.75;;
34317;SDS011;20582;52.196;20.952;2023-04-06T13:46:58;13.00;;;6.55;;
34317;SDS011;20582;52.196;20.952;2023-04-06T13:49:24;11.85;;;6.60;;
34317;SDS011;20582;52.196;20.952;2023-04-06T13:51:51;11.98;;;6.05;;
34317;SDS011;20582;52.196;20.952;2023-04-06T13:54:17;12.18;;;6.07;;
34317;SDS011;20582;52.196;20.952;2023-04-06T13:56:43;12.05;;;6.35;;
34317;SDS011;20582;52.196;20.952;2023-04-06T13:59:09;12.43;;;5.90;;
34317;SDS011;20582;52.196;20.952;2023-04-06T14:01:35;12.05;;;5.93;;
34317;SDS011;20582;52.196;20.952;2023-04-06T14:04:01;10.27;;;5.82;;
34317;SDS011;20582;52.196;20.952;2023-04-06T14:06:27;11.90;;;6.07;;
34317;SDS011;20582;52.196;20.952;2023-04-06T14:08:53;12.75;;;6.13;;
34317;SDS011;20582;52.196;20.952;2023-04-06T14:11:19;11.98;;;6.68;;
34317;SDS011;20582;52.196;20.952;2023-04-06T14:13:45;13.98;;;6.43;;
34317;SDS011;20582;52.196;20.952;2023-04-06T14:16:11;13.55;;;6.25;;
34317;SDS011;20582;52.196;20.952;2023-04-06T14:18:37;11.45;;;6.25;;
34317;SDS011;20582;52.196;20.952;2023-04-06T14:21:03;12.55;;;5.45;;
34317;SDS011;20582;52.196;20.952;2023-04-06T14:23:30;16.08;;;7.43;;
34317;SDS011;20582;52.196;20.952;2023-04-06T14:26:08;15.93;;;6.53;;
34317;SDS011;20582;52.196;20.952;2023-04-06T14:28:35;13.45;;;6.43;;